createdAt,value
2022-09-28T00:00:48.151Z,96533.00
2022-09-28T00:05:49.933Z,96534.56
2022-09-28T00:10:56.133Z,96529.16
2022-09-28T00:16:05.209Z,96525.22
2022-09-28T00:21:15.645Z,96516.66
2022-09-28T00:26:17.430Z,96514.34
2022-09-28T00:31:19.383Z,96509.31
2022-09-28T00:36:21.377Z,96501.94
2022-09-28T00:41:24.814Z,96504.25
2022-09-28T00:46:35.544Z,96494.59
2022-09-28T00:51:41.261Z,96487.25
2022-09-28T00:56:45.928Z,96484.19
2022-09-28T01:01:49.448Z,96488.09
2022-09-28T01:06:52.311Z,96477.31
2022-09-28T01:11:55.274Z,96480.03
2022-09-28T01:17:30.744Z,96476.50
2022-09-28T01:23:00.387Z,96473.44
2022-09-28T01:28:11.809Z,96473.84
2022-09-28T01:33:25.031Z,96468.75
2022-09-28T01:38:47.628Z,96460.19
2022-09-28T01:43:56.161Z,96456.69
2022-09-28T01:49:02.069Z,96459.41
2022-09-28T01:54:12.829Z,96459.34
2022-09-28T01:59:22.621Z,96456.56
2022-09-28T02:04:35.272Z,96459.28
2022-09-28T02:09:48.833Z,96450.69
2022-09-28T02:14:59.739Z,96455.31
2022-09-28T02:20:01.888Z,96456.97
2022-09-28T02:25:09.146Z,96454.28
2022-09-28T02:30:11.577Z,96448.53
2022-09-28T02:35:17.592Z,96449.72
2022-09-28T02:40:29.158Z,96440.41
2022-09-28T02:46:02.161Z,96438.00
2022-09-28T02:51:13.555Z,96427.56
2022-09-28T02:56:31.305Z,96429.97
2022-09-28T03:01:33.115Z,96435.41
2022-09-28T03:06:43.720Z,96419.22
2022-09-28T03:11:51.123Z,96411.41
2022-09-28T03:16:53.595Z,96404.75
2022-09-28T03:21:55.763Z,96409.72
2022-09-28T03:26:57.615Z,96409.72
2022-09-28T03:31:59.595Z,96400.44
2022-09-28T03:37:01.641Z,96410.91
2022-09-28T03:42:03.664Z,96411.41
2022-09-28T03:47:09.579Z,96421.09
2022-09-28T03:52:12.747Z,96415.34
2022-09-28T03:57:14.549Z,96413.78
2022-09-28T04:02:16.608Z,96407.97
2022-09-28T04:07:18.432Z,96391.38
2022-09-28T04:12:20.533Z,96371.63
2022-09-28T04:17:23.139Z,96369.59
2022-09-28T04:22:25.083Z,96364.09
2022-09-28T04:27:45.479Z,96377.63
2022-09-28T04:32:47.887Z,96365.59
2022-09-28T04:37:49.826Z,96360.91
2022-09-28T04:42:55.698Z,96346.97
2022-09-28T04:47:58.158Z,96327.66
2022-09-28T04:53:23.809Z,96323.09
2022-09-28T04:58:26.156Z,96326.22
2022-09-28T05:03:28.747Z,96309.22
2022-09-28T05:08:43.648Z,96313.53
2022-09-28T05:13:45.974Z,96306.19
2022-09-28T05:18:55.174Z,96300.72
2022-09-28T05:23:58.515Z,96302.22
2022-09-28T05:29:01.265Z,96303.66
2022-09-28T05:34:21.621Z,96301.69
2022-09-28T05:39:23.596Z,96289.69
2022-09-28T05:44:25.988Z,96289.28
2022-09-28T05:49:31.704Z,96277.66
2022-09-28T05:54:35.517Z,96271.88
2022-09-28T05:59:37.481Z,96251.72
2022-09-28T06:04:40.130Z,96249.34
2022-09-28T06:09:42.015Z,96237.34
2022-09-28T06:14:51.944Z,96227.59
2022-09-28T06:19:53.866Z,96223.66
2022-09-28T06:25:10.449Z,96213.94
2022-09-28T06:30:14.126Z,96216.28
2022-09-28T06:35:16.207Z,96222.84
2022-09-28T06:40:19.197Z,96206.50
2022-09-28T06:45:24.578Z,96208.00
2022-09-28T06:50:45.078Z,96205.59
2022-09-28T06:56:03.539Z,96206.31
2022-09-28T07:01:05.873Z,96221.75
2022-09-28T07:06:18.615Z,96215.53
2022-09-28T07:11:44.838Z,96214.69
2022-09-28T07:17:13.536Z,96213.88
2022-09-28T07:22:19.402Z,96230.16
2022-09-28T07:27:26.802Z,96249.88
2022-09-28T07:32:45.810Z,96234.66
2022-09-28T07:38:00.470Z,96220.63
2022-09-28T07:43:06.950Z,96212.38
2022-09-28T07:48:09.089Z,96225.50
2022-09-28T07:53:43.349Z,96232.13
2022-09-28T07:59:05.410Z,96230.84
2022-09-28T08:04:25.691Z,96224.31
2022-09-28T08:09:27.543Z,96240.34
2022-09-28T08:15:01.369Z,96246.97
2022-09-28T08:21:00.549Z,96244.78
2022-09-28T08:26:03.278Z,96253.44
2022-09-28T08:31:07.511Z,96249.78
2022-09-28T08:36:35.178Z,96259.19
2022-09-28T08:42:19.154Z,96264.59
2022-09-28T08:48:29.686Z,96254.56
2022-09-28T08:54:20.680Z,96251.13
2022-09-28T08:59:43.749Z,96257.63
2022-09-28T09:04:52.956Z,96262.28
2022-09-28T09:10:25.081Z,96264.41
2022-09-28T09:15:48.262Z,96246.03
2022-09-28T09:21:15.637Z,96232.25
2022-09-28T09:26:24.681Z,96229.34
2022-09-28T09:31:53.091Z,96219.97
2022-09-28T09:36:57.990Z,96208.69
2022-09-28T09:43:03.530Z,96212.91
2022-09-28T09:48:45.791Z,96208.25
2022-09-28T09:53:53.276Z,96219.94
2022-09-28T09:59:02.877Z,96217.50
2022-09-28T10:04:26.881Z,96206.19
2022-09-28T10:09:46.012Z,96204.97
2022-09-28T10:15:07.959Z,96197.78
2022-09-28T10:20:23.142Z,96192.34
2022-09-28T10:25:44.626Z,96188.38
2022-09-28T10:30:46.979Z,96183.91
2022-09-28T10:35:49.270Z,96187.97
2022-09-28T10:40:56.999Z,96169.56
2022-09-28T10:46:14.243Z,96179.94
2022-09-28T10:51:39.306Z,96189.28
2022-09-28T10:56:48.050Z,96174.38
2022-09-28T11:02:21.805Z,96177.25
2022-09-28T11:07:32.535Z,96178.25
2022-09-28T11:12:43.183Z,96184.97
2022-09-28T11:17:45.478Z,96189.44
2022-09-28T11:22:51.684Z,96195.47
2022-09-28T11:27:59.312Z,96205.78
2022-09-28T11:33:05.368Z,96211.72
2022-09-28T11:38:41.002Z,96213.03
2022-09-28T11:44:33.711Z,96225.78
2022-09-28T11:49:50.289Z,96217.03
2022-09-28T11:55:01.324Z,96226.38
2022-09-28T12:00:13.265Z,96220.22
2022-09-28T12:05:30.547Z,96225.47
2022-09-28T12:10:39.405Z,96232.41
2022-09-28T12:16:23.049Z,96224.50
2022-09-28T12:21:40.873Z,96228.47
2022-09-28T12:26:55.811Z,96227.72
2022-09-28T12:32:18.707Z,96247.19
2022-09-28T12:37:45.163Z,96236.00
2022-09-28T12:43:05.754Z,96236.69
2022-09-28T12:48:13.499Z,96247.44
2022-09-28T12:53:41.785Z,96245.97
2022-09-28T12:58:53.790Z,96251.28
2022-09-28T13:03:58.391Z,96264.44
2022-09-28T13:09:34.876Z,96271.50
2022-09-28T13:15:05.613Z,96278.16
2022-09-28T13:20:25.768Z,96292.13
2022-09-28T13:25:31.288Z,96290.00
2022-09-28T13:30:39.001Z,96296.34
2022-09-28T13:35:44.414Z,96294.88
2022-09-28T13:41:04.743Z,96309.25
2022-09-28T13:46:20.474Z,96308.91
2022-09-28T13:51:49.992Z,96310.88
2022-09-28T13:57:09.994Z,96321.50
2022-09-28T14:02:21.151Z,96333.78
2022-09-28T14:12:45.298Z,96344.13
2022-09-28T14:17:57.782Z,96347.69
2022-09-28T14:23:27.344Z,96350.75
2022-09-28T14:28:38.123Z,96361.56
2022-09-28T14:33:42.809Z,96370.38
2022-09-28T14:39:08.619Z,96371.16
2022-09-28T14:44:12.858Z,96384.41
2022-09-28T14:49:17.625Z,96384.25
2022-09-28T14:54:25.606Z,96387.84
2022-09-28T14:59:30.748Z,96382.19
2022-09-28T15:04:39.405Z,96382.09
2022-09-28T15:09:41.700Z,96386.03
2022-09-28T15:14:47.820Z,96395.06
2022-09-28T15:20:12.345Z,96403.94
2022-09-28T15:25:20.609Z,96401.59
2022-09-28T15:30:29.139Z,96409.66
2022-09-28T15:35:31.025Z,96415.31
2022-09-28T15:40:38.758Z,96411.41
2022-09-28T15:45:40.718Z,96420.66
2022-09-28T15:50:57.102Z,96429.16
2022-09-28T15:56:05.724Z,96439.31
2022-09-28T16:01:32.250Z,96442.47
2022-09-28T16:06:34.315Z,96457.97
2022-09-28T16:11:40.679Z,96461.00
2022-09-28T16:16:51.317Z,96464.94
2022-09-28T16:21:55.929Z,96475.19
2022-09-28T16:27:23.200Z,96493.13
2022-09-28T16:32:24.964Z,96494.66
2022-09-28T16:37:31.934Z,96493.41
2022-09-28T16:42:33.922Z,96502.47
2022-09-28T16:47:36.079Z,96504.41
2022-09-28T16:52:59.836Z,96502.38
2022-09-28T16:58:04.721Z,96509.94
2022-09-28T17:03:13.736Z,96512.88
2022-09-28T17:08:22.298Z,96518.38
2022-09-28T17:13:33.322Z,96523.88
2022-09-28T17:18:39.227Z,96526.94
2022-09-28T17:23:41.353Z,96539.31
2022-09-28T17:28:43.146Z,96543.69
2022-09-28T17:33:46.110Z,96542.75
2022-09-28T17:38:49.630Z,96542.13
2022-09-28T17:43:51.520Z,96546.78
2022-09-28T17:48:54.360Z,96558.78
2022-09-28T17:54:01.143Z,96559.16
2022-09-28T17:59:06.067Z,96557.59
2022-09-28T18:04:23.092Z,96562.66
2022-09-28T18:09:34.459Z,96562.34
2022-09-28T18:14:36.606Z,96555.53
2022-09-28T18:19:38.808Z,96559.59
2022-09-28T18:24:40.949Z,96564.41
2022-09-28T18:29:43.247Z,96565.38
2022-09-28T18:34:45.669Z,96574.66
2022-09-28T18:39:47.817Z,96580.41
2022-09-28T18:44:49.888Z,96588.94
2022-09-28T18:49:52.042Z,96587.09
2022-09-28T18:54:54.937Z,96584.03
2022-09-28T18:59:57.207Z,96586.38
2022-09-28T19:04:59.532Z,96588.00
2022-09-28T19:10:01.766Z,96590.72
2022-09-28T19:15:04.873Z,96588.84
2022-09-28T19:20:07.395Z,96593.06
2022-09-28T19:25:10.046Z,96592.72
2022-09-28T19:30:12.715Z,96593.94
2022-09-28T19:35:14.758Z,96591.22
2022-09-28T19:40:16.718Z,96587.72
2022-09-28T19:45:18.626Z,96590.41
2022-09-28T19:50:20.474Z,96589.69
2022-09-28T19:55:23.736Z,96598.66
2022-09-28T20:00:25.762Z,96594.44
2022-09-28T20:05:27.561Z,96608.72
2022-09-28T20:10:29.603Z,96606.78
2022-09-28T20:15:31.521Z,96615.34
2022-09-28T20:20:33.373Z,96616.91
2022-09-28T20:25:35.517Z,96624.63
2022-09-28T20:30:37.432Z,96629.31
2022-09-28T20:35:40.609Z,96629.69
2022-09-28T20:40:42.472Z,96638.56
2022-09-28T20:45:44.398Z,96634.72
2022-09-28T20:50:46.177Z,96648.63
2022-09-28T20:55:47.981Z,96653.63
2022-09-28T21:00:49.797Z,96663.28
2022-09-28T21:05:51.788Z,96659.41
2022-09-28T21:10:54.371Z,96673.38
2022-09-28T21:16:01.502Z,96676.84
2022-09-28T21:21:09.334Z,96677.22
2022-09-28T21:26:24.467Z,96681.13
2022-09-28T21:31:29.698Z,96691.19
2022-09-28T21:36:31.983Z,96695.06
2022-09-28T21:41:33.869Z,96698.16
2022-09-28T21:46:37.749Z,96706.69
2022-09-28T21:51:39.651Z,96698.56
2022-09-28T21:56:41.465Z,96697.38
2022-09-28T22:01:44.376Z,96700.09
2022-09-28T22:06:46.321Z,96700.09
2022-09-28T22:11:49.234Z,96699.31
2022-09-28T22:16:51.061Z,96705.13
2022-09-28T22:21:52.875Z,96707.47
2022-09-28T22:26:54.706Z,96714.41
2022-09-28T22:32:02.191Z,96717.91
2022-09-28T22:37:04.280Z,96715.19
2022-09-28T22:42:06.178Z,96715.19
2022-09-28T22:47:08.015Z,96707.41
2022-09-28T22:52:09.809Z,96712.84
2022-09-28T22:57:11.598Z,96720.19
2022-09-28T23:02:13.421Z,96725.22
2022-09-28T23:07:15.224Z,96728.31
2022-09-28T23:12:17.245Z,96729.09
2022-09-28T23:17:19.088Z,96729.09
2022-09-28T23:22:20.905Z,96729.09
2022-09-28T23:27:22.746Z,96719.81
2022-09-28T23:32:28.543Z,96730.66
2022-09-28T23:37:32.991Z,96728.69
2022-09-28T23:42:35.578Z,96739.88
2022-09-28T23:47:37.969Z,96732.88
2022-09-28T23:52:39.790Z,96741.38
2022-09-28T23:57:43.867Z,96739.03
